sensor_id;sensor_type;location;lat;lon;timestamp;P1;durP1;ratioP1;P2;durP2;ratioP2
20154;SDS011;10238;49.556;10.956;2023-04-03T00:02:08;2.03;;;1.80;;
20154;SDS011;10238;49.556;10.956;2023-04-03T00:04:56;1.88;;;1.65;;
20154;SDS011;10238;49.556;10.956;2023-04-03T00:07:44;2.20;;;2.00;;
20154;SDS011;10238;49.556;10.956;2023-04-03T00:10:32;2.17;;;1.73;;
20154;SDS011;10238;49.556;10.956;2023-04-03T00:13:20;2.92;;;2.00;;
20154;SDS011;10238;49.556;10.956;2023-04-03T00:16:09;3.58;;;2.40;;
20154;SDS011;10238;49.556;10.956;2023-04-03T00:18:59;3.42;;;2.25;;
20154;SDS011;10238;49.556;10.956;2023-04-03T00:21:47;2.28;;;1.98;;
20154;SDS011;10238;49.556;10.956;2023-04-03T00:24:36;2.38;;;2.17;;
20154;SDS011;10238;49.556;10.956;2023-04-03T00:27:24;4.25;;;2.40;;
20154;SDS011;10238;49.556;10.956;2023-04-03T00:30:13;1.95;;;1.85;;
20154;SDS011;10238;49.556;10.956;2023-04-03T00:33:02;2.15;;;1.98;;
20154;SDS011;10238;49.556;10.956;2023-04-03T00:35:52;2.00;;;1.90;;
20154;SDS011;10238;49.556;10.956;2023-04-03T00:38:40;1.80;;;1.70;;
20154;SDS011;10238;49.556;10.956;2023-04-03T00:41:28;2.25;;;2.08;;
20154;SDS011;10238;49.556;10.956;2023-04-03T00:44:21;2.75;;;2.40;;
20154;SDS011;10238;49.556;10.956;2023-04-03T00:47:30;2.27;;;2.13;;
20154;SDS011;10238;49.556;10.956;2023-04-03T00:50:18;2.20;;;2.00;;
20154;SDS011;10238;49.556;10.956;2023-04-03T00:53:08;2.17;;;1.98;;
20154;SDS011;10238;49.556;10.956;2023-04-03T00:55:59;2.58;;;2.38;;
20154;SDS011;10238;49.556;10.956;2023-04-03T00:58:48;2.28;;;2.10;;
20154;SDS011;10238;49.556;10.956;2023-04-03T01:01:39;2.05;;;1.95;;
20154;SDS011;10238;49.556;10.956;2023-04-03T01:04:27;2.83;;;2.63;;
20154;SDS011;10238;49.556;10.956;2023-04-03T01:07:17;2.40;;;2.20;;
20154;SDS011;10238;49.556;10.956;2023-04-03T01:10:11;1.95;;;1.80;;
20154;SDS011;10238;49.556;10.956;2023-04-03T01:13:01;2.42;;;2.22;;
20154;SDS011;10238;49.556;10.956;2023-04-03T01:16:06;2.22;;;1.98;;
20154;SDS011;10238;49.556;10.956;2023-04-03T01:18:54;2.20;;;2.00;;
20154;SDS011;10238;49.556;10.956;2023-04-03T01:21:54;2.33;;;2.10;;
20154;SDS011;10238;49.556;10.956;2023-04-03T01:24:52;2.40;;;1.92;;
20154;SDS011;10238;49.556;10.956;2023-04-03T01:27:42;2.58;;;2.15;;
20154;SDS011;10238;49.556;10.956;2023-04-03T01:30:32;2.22;;;1.95;;
20154;SDS011;10238;49.556;10.956;2023-04-03T01:33:23;2.42;;;1.65;;
20154;SDS011;10238;49.556;10.956;2023-04-03T01:36:13;2.35;;;1.95;;
20154;SDS011;10238;49.556;10.956;2023-04-03T01:39:02;2.08;;;1.70;;
20154;SDS011;10238;49.556;10.956;2023-04-03T01:41:51;2.35;;;2.00;;
20154;SDS011;10238;49.556;10.956;2023-04-03T01:44:38;2.13;;;2.00;;
20154;SDS011;10238;49.556;10.956;2023-04-03T01:47:26;2.65;;;1.88;;
20154;SDS011;10238;49.556;10.956;2023-04-03T01:50:16;1.90;;;1.80;;
20154;SDS011;10238;49.556;10.956;2023-04-03T01:53:04;1.95;;;1.85;;
20154;SDS011;10238;49.556;10.956;2023-04-03T01:55:52;1.90;;;1.80;;
20154;SDS011;10238;49.556;10.956;2023-04-03T01:58:40;2.13;;;1.80;;
20154;SDS011;10238;49.556;10.956;2023-04-03T02:01:28;2.00;;;1.80;;
20154;SDS011;10238;49.556;10.956;2023-04-03T02:04:17;3.58;;;1.90;;
20154;SDS011;10238;49.556;10.956;2023-04-03T02:07:06;2.25;;;2.03;;
20154;SDS011;10238;49.556;10.956;2023-04-03T02:09:54;1.95;;;1.80;;
20154;SDS011;10238;49.556;10.956;2023-04-03T02:12:42;2.00;;;1.90;;
20154;SDS011;10238;49.556;10.956;2023-04-03T02:15:30;1.73;;;1.63;;
20154;SDS011;10238;49.556;10.956;2023-04-03T02:18:19;1.95;;;1.80;;
20154;SDS011;10238;49.556;10.956;2023-04-03T02:21:07;1.85;;;1.75;;
20154;SDS011;10238;49.556;10.956;2023-04-03T02:23:57;1.98;;;1.70;;
20154;SDS011;10238;49.556;10.956;2023-04-03T02:26:45;1.95;;;1.85;;
20154;SDS011;10238;49.556;10.956;2023-04-03T02:29:33;2.08;;;1.77;;
20154;SDS011;10238;49.556;10.956;2023-04-03T02:32:26;2.00;;;1.70;;
20154;SDS011;10238;49.556;10.956;2023-04-03T02:35:17;2.35;;;2.15;;
20154;SDS011;10238;49.556;10.956;2023-04-03T02:38:05;3.35;;;1.73;;
20154;SDS011;10238;49.556;10.956;2023-04-03T02:40:57;2.75;;;1.90;;
20154;SDS011;10238;49.556;10.956;2023-04-03T02:43:47;2.00;;;1.73;;
20154;SDS011;10238;49.556;10.956;2023-04-03T02:46:35;2.13;;;1.80;;
20154;SDS011;10238;49.556;10.956;2023-04-03T02:49:23;1.70;;;1.60;;
20154;SDS011;10238;49.556;10.956;2023-04-03T02:52:11;2.25;;;2.08;;
20154;SDS011;10238;49.556;10.956;2023-04-03T02:54:59;3.47;;;2.25;;
20154;SDS011;10238;49.556;10.956;2023-04-03T02:57:52;1.90;;;1.75;;
20154;SDS011;10238;49.556;10.956;2023-04-03T03:00:41;2.92;;;2.03;;
20154;SDS011;10238;49.556;10.956;2023-04-03T03:03:29;4.18;;;2.05;;
20154;SDS011;10238;49.556;10.956;2023-04-03T03:06:20;3.60;;;2.30;;
20154;SDS011;10238;49.556;10.956;2023-04-03T03:09:08;2.90;;;2.10;;
20154;SDS011;10238;49.556;10.956;2023-04-03T03:11:58;3.97;;;2.00;;
20154;SDS011;10238;49.556;10.956;2023-04-03T03:14:48;3.40;;;2.20;;
20154;SDS011;10238;49.556;10.956;2023-04-03T03:17:37;2.78;;;2.05;;
20154;SDS011;10238;49.556;10.956;2023-04-03T03:20:26;4.38;;;2.38;;
20154;SDS011;10238;49.556;10.956;2023-04-03T03:23:17;3.13;;;2.05;;
20154;SDS011;10238;49.556;10.956;2023-04-03T03:26:08;4.18;;;2.60;;
20154;SDS011;10238;49.556;10.956;2023-04-03T03:29:02;3.08;;;2.00;;
20154;SDS011;10238;49.556;10.956;2023-04-03T03:31:52;3.97;;;2.13;;
20154;SDS011;10238;49.556;10.956;2023-04-03T03:34:41;3.67;;;2.40;;
20154;SDS011;10238;49.556;10.956;2023-04-03T03:37:29;4.47;;;2.30;;
20154;SDS011;10238;49.556;10.956;2023-04-03T03:40:17;3.25;;;2.42;;
20154;SDS011;10238;49.556;10.956;2023-04-03T03:43:05;2.53;;;2.20;;
20154;SDS011;10238;49.556;10.956;2023-04-03T03:45:53;3.85;;;2.35;;
20154;SDS011;10238;49.556;10.956;2023-04-03T03:48:43;2.58;;;2.10;;
20154;SDS011;10238;49.556;10.956;2023-04-03T03:51:31;3.42;;;2.33;;
20154;SDS011;10238;49.556;10.956;2023-04-03T03:54:24;5.10;;;2.33;;
20154;SDS011;10238;49.556;10.956;2023-04-03T03:57:12;4.78;;;3.00;;
20154;SDS011;10238;49.556;10.956;2023-04-03T04:00:01;3.10;;;2.40;;
20154;SDS011;10238;49.556;10.956;2023-04-03T04:02:49;3.35;;;2.40;;
20154;SDS011;10238;49.556;10.956;2023-04-03T04:05:39;5.05;;;2.60;;
20154;SDS011;10238;49.556;10.956;2023-04-03T04:08:27;2.88;;;2.50;;
20154;SDS011;10238;49.556;10.956;2023-04-03T04:11:19;3.78;;;2.33;;
20154;SDS011;10238;49.556;10.956;2023-04-03T04:14:07;4.85;;;2.72;;
20154;SDS011;10238;49.556;10.956;2023-04-03T04:16:58;2.88;;;2.22;;
20154;SDS011;10238;49.556;10.956;2023-04-03T04:19:48;3.30;;;2.28;;
20154;SDS011;10238;49.556;10.956;2023-04-03T04:22:37;4.28;;;2.53;;
20154;SDS011;10238;49.556;10.956;2023-04-03T04:25:25;3.08;;;2.13;;
20154;SDS011;10238;49.556;10.956;2023-04-03T04:28:13;4.78;;;2.42;;
20154;SDS011;10238;49.556;10.956;2023-04-03T04:31:01;3.08;;;2.67;;
20154;SDS011;10238;49.556;10.956;2023-04-03T04:33:49;2.90;;;2.50;;
20154;SDS011;10238;49.556;10.956;2023-04-03T04:36:40;4.47;;;2.53;;
20154;SDS011;10238;49.556;10.956;2023-04-03T04:39:29;5.07;;;2.75;;
20154;SDS011;10238;49.556;10.956;2023-04-03T04:42:17;5.43;;;2.65;;
20154;SDS011;10238;49.556;10.956;2023-04-03T04:45:08;5.43;;;2.40;;
20154;SDS011;10238;49.556;10.956;2023-04-03T04:47:56;4.32;;;2.85;;
20154;SDS011;10238;49.556;10.956;2023-04-03T04:50:44;4.68;;;2.63;;
20154;SDS011;10238;49.556;10.956;2023-04-03T04:53:32;5.40;;;2.67;;
20154;SDS011;10238;49.556;10.956;2023-04-03T04:56:22;3.67;;;2.70;;
20154;SDS011;10238;49.556;10.956;2023-04-03T04:59:11;4.57;;;2.20;;
20154;SDS011;10238;49.556;10.956;2023-04-03T05:01:59;2.88;;;2.38;;
20154;SDS011;10238;49.556;10.956;2023-04-03T05:04:47;3.97;;;2.58;;
20154;SDS011;10238;49.556;10.956;2023-04-03T05:07:37;2.88;;;2.63;;
20154;SDS011;10238;49.556;10.956;2023-04-03T05:10:26;3.28;;;2.40;;
20154;SDS011;10238;49.556;10.956;2023-04-03T05:13:15;3.72;;;2.50;;
20154;SDS011;10238;49.556;10.956;2023-04-03T05:16:03;7.45;;;2.70;;
20154;SDS011;10238;49.556;10.956;2023-04-03T05:18:51;2.83;;;2.53;;
20154;SDS011;10238;49.556;10.956;2023-04-03T05:21:39;7.80;;;2.80;;
20154;SDS011;10238;49.556;10.956;2023-04-03T05:24:27;5.35;;;2.65;;
20154;SDS011;10238;49.556;10.956;2023-04-03T05:27:15;3.65;;;2.58;;
20154;SDS011;10238;49.556;10.956;2023-04-03T05:30:05;4.80;;;2.50;;
20154;SDS011;10238;49.556;10.956;2023-04-03T05:32:55;4.00;;;2.60;;
20154;SDS011;10238;49.556;10.956;2023-04-03T05:35:43;3.63;;;2.58;;
20154;SDS011;10238;49.556;10.956;2023-04-03T05:38:31;3.75;;;2.42;;
20154;SDS011;10238;49.556;10.956;2023-04-03T05:41:20;4.45;;;2.40;;
20154;SDS011;10238;49.556;10.956;2023-04-03T05:44:08;4.00;;;2.50;;
20154;SDS011;10238;49.556;10.956;2023-04-03T05:46:57;5.30;;;2.50;;
20154;SDS011;10238;49.556;10.956;2023-04-03T05:49:45;3.15;;;2.72;;
20154;SDS011;10238;49.556;10.956;2023-04-03T05:52:35;6.32;;;2.33;;
20154;SDS011;10238;49.556;10.956;2023-04-03T05:55:25;4.78;;;2.50;;
20154;SDS011;10238;49.556;10.956;2023-04-03T05:58:13;6.28;;;2.53;;
20154;SDS011;10238;49.556;10.956;2023-04-03T06:01:01;9.43;;;3.72;;
20154;SDS011;10238;49.556;10.956;2023-04-03T06:03:50;5.72;;;2.78;;
20154;SDS011;10238;49.556;10.956;2023-04-03T06:06:46;4.97;;;2.75;;
20154;SDS011;10238;49.556;10.956;2023-04-03T06:09:37;4.25;;;2.72;;
20154;SDS011;10238;49.556;10.956;2023-04-03T06:12:25;5.35;;;3.17;;
20154;SDS011;10238;49.556;10.956;2023-04-03T06:15:14;7.82;;;2.50;;
20154;SDS011;10238;49.556;10.956;2023-04-03T06:18:02;4.22;;;2.60;;
20154;SDS011;10238;49.556;10.956;2023-04-03T06:20:52;9.15;;;2.95;;
20154;SDS011;10238;49.556;10.956;2023-04-03T06:23:41;7.50;;;2.78;;
20154;SDS011;10238;49.556;10.956;2023-04-03T06:26:29;7.85;;;2.97;;
20154;SDS011;10238;49.556;10.956;2023-04-03T06:29:17;6.80;;;2.67;;
20154;SDS011;10238;49.556;10.956;2023-04-03T06:32:05;10.68;;;3.10;;
20154;SDS011;10238;49.556;10.956;2023-04-03T06:34:53;7.43;;;3.20;;
20154;SDS011;10238;49.556;10.956;2023-04-03T06:37:44;5.88;;;4.43;;
20154;SDS011;10238;49.556;10.956;2023-04-03T06:40:32;5.45;;;2.88;;
20154;SDS011;10238;49.556;10.956;2023-04-03T06:43:21;4.45;;;2.80;;
20154;SDS011;10238;49.556;10.956;2023-04-03T06:46:12;7.10;;;2.50;;
20154;SDS011;10238;49.556;10.956;2023-04-03T06:49:02;7.03;;;3.10;;
20154;SDS011;10238;49.556;10.956;2023-04-03T06:51:52;5.22;;;3.17;;
20154;SDS011;10238;49.556;10.956;2023-04-03T06:54:42;5.75;;;2.78;;
20154;SDS011;10238;49.556;10.956;2023-04-03T06:57:30;5.93;;;2.60;;
20154;SDS011;10238;49.556;10.956;2023-04-03T07:00:18;4.90;;;3.25;;
20154;SDS011;10238;49.556;10.956;2023-04-03T07:03:07;5.57;;;3.05;;
20154;SDS011;10238;49.556;10.956;2023-04-03T07:05:55;7.55;;;2.47;;
20154;SDS011;10238;49.556;10.956;2023-04-03T07:08:43;4.97;;;2.63;;
20154;SDS011;10238;49.556;10.956;2023-04-03T07:11:37;4.90;;;2.58;;
20154;SDS011;10238;49.556;10.956;2023-04-03T07:14:30;6.95;;;2.72;;
20154;SDS011;10238;49.556;10.956;2023-04-03T07:17:20;3.93;;;2.70;;
20154;SDS011;10238;49.556;10.956;2023-04-03T07:20:11;7.53;;;3.05;;
20154;SDS011;10238;49.556;10.956;2023-04-03T07:23:00;4.50;;;2.90;;
20154;SDS011;10238;49.556;10.956;2023-04-03T07:25:49;5.05;;;2.45;;
20154;SDS011;10238;49.556;10.956;2023-04-03T07:28:39;6.32;;;2.83;;
20154;SDS011;10238;49.556;10.956;2023-04-03T07:31:29;4.40;;;2.90;;
20154;SDS011;10238;49.556;10.956;2023-04-03T07:34:17;4.93;;;2.97;;
20154;SDS011;10238;49.556;10.956;2023-04-03T07:37:05;4.22;;;2.70;;
20154;SDS011;10238;49.556;10.956;2023-04-03T07:39:54;6.47;;;2.67;;
20154;SDS011;10238;49.556;10.956;2023-04-03T07:42:44;3.65;;;2.60;;
20154;SDS011;10238;49.556;10.956;2023-04-03T07:45:35;7.05;;;2.90;;
20154;SDS011;10238;49.556;10.956;2023-04-03T07:48:24;6.35;;;3.10;;
20154;SDS011;10238;49.556;10.956;2023-04-03T07:51:13;6.63;;;3.20;;
20154;SDS011;10238;49.556;10.956;2023-04-03T07:54:02;10.02;;;3.55;;
20154;SDS011;10238;49.556;10.956;2023-04-03T07:56:50;4.47;;;3.10;;
20154;SDS011;10238;49.556;10.956;2023-04-03T07:59:38;4.90;;;2.60;;
20154;SDS011;10238;49.556;10.956;2023-04-03T08:02:29;3.70;;;2.72;;
20154;SDS011;10238;49.556;10.956;2023-04-03T08:05:21;4.43;;;3.50;;
20154;SDS011;10238;49.556;10.956;2023-04-03T08:08:10;6.68;;;4.03;;
20154;SDS011;10238;49.556;10.956;2023-04-03T08:11:00;7.13;;;3.25;;
20154;SDS011;10238;49.556;10.956;2023-04-03T08:13:51;6.82;;;2.90;;
20154;SDS011;10238;49.556;10.956;2023-04-03T08:16:39;6.85;;;3.65;;
20154;SDS011;10238;49.556;10.956;2023-04-03T08:19:29;7.30;;;2.90;;
20154;SDS011;10238;49.556;10.956;2023-04-03T08:22:17;3.83;;;3.15;;
20154;SDS011;10238;49.556;10.956;2023-04-03T08:25:06;4.15;;;2.75;;
20154;SDS011;10238;49.556;10.956;2023-04-03T08:27:54;3.97;;;2.90;;
20154;SDS011;10238;49.556;10.956;2023-04-03T08:30:42;6.70;;;3.47;;
20154;SDS011;10238;49.556;10.956;2023-04-03T08:33:32;3.35;;;3.05;;
20154;SDS011;10238;49.556;10.956;2023-04-03T08:36:23;4.75;;;3.13;;
20154;SDS011;10238;49.556;10.956;2023-04-03T08:39:12;6.53;;;3.80;;
20154;SDS011;10238;49.556;10.956;2023-04-03T08:42:02;4.80;;;3.97;;
20154;SDS011;10238;49.556;10.956;2023-04-03T08:44:59;4.80;;;3.38;;
20154;SDS011;10238;49.556;10.956;2023-04-03T08:47:55;6.75;;;3.55;;
20154;SDS011;10238;49.556;10.956;2023-04-03T08:50:50;5.93;;;3.45;;
20154;SDS011;10238;49.556;10.956;2023-04-03T08:53:43;2.80;;;2.60;;
20154;SDS011;10238;49.556;10.956;2023-04-03T08:56:37;3.90;;;3.17;;
20154;SDS011;10238;49.556;10.956;2023-04-03T08:59:28;4.13;;;3.45;;
20154;SDS011;10238;49.556;10.956;2023-04-03T09:02:23;6.00;;;3.55;;
20154;SDS011;10238;49.556;10.956;2023-04-03T09:05:15;4.10;;;3.67;;
20154;SDS011;10238;49.556;10.956;2023-04-03T09:08:06;6.93;;;4.45;;
20154;SDS011;10238;49.556;10.956;2023-04-03T09:11:06;3.90;;;3.50;;
20154;SDS011;10238;49.556;10.956;2023-04-03T09:14:04;4.70;;;3.67;;
20154;SDS011;10238;49.556;10.956;2023-04-03T09:17:02;4.00;;;3.70;;
20154;SDS011;10238;49.556;10.956;2023-04-03T09:19:58;6.00;;;3.75;;
20154;SDS011;10238;49.556;10.956;2023-04-03T09:22:56;4.45;;;3.78;;
20154;SDS011;10238;49.556;10.956;2023-04-03T09:25:45;3.53;;;2.50;;
20154;SDS011;10238;49.556;10.956;2023-04-03T09:28:37;4.03;;;2.60;;
20154;SDS011;10238;49.556;10.956;2023-04-03T09:31:37;4.28;;;2.63;;
20154;SDS011;10238;49.556;10.956;2023-04-03T09:34:28;4.38;;;2.10;;
20154;SDS011;10238;49.556;10.956;2023-04-03T09:40:28;3.83;;;2.47;;
20154;SDS011;10238;49.556;10.956;2023-04-03T09:43:22;5.22;;;4.35;;
20154;SDS011;10238;49.556;10.956;2023-04-03T09:46:23;4.10;;;3.58;;
20154;SDS011;10238;49.556;10.956;2023-04-03T09:49:19;3.83;;;3.13;;
20154;SDS011;10238;49.556;10.956;2023-04-03T09:52:18;3.67;;;3.15;;
20154;SDS011;10238;49.556;10.956;2023-04-03T09:55:19;3.28;;;2.80;;
20154;SDS011;10238;49.556;10.956;2023-04-03T09:58:23;5.20;;;3.03;;
20154;SDS011;10238;49.556;10.956;2023-04-03T10:01:33;3.45;;;3.15;;
20154;SDS011;10238;49.556;10.956;2023-04-03T10:04:23;3.03;;;2.72;;
20154;SDS011;10238;49.556;10.956;2023-04-03T10:07:26;4.32;;;2.80;;
20154;SDS011;10238;49.556;10.956;2023-04-03T10:10:21;3.53;;;2.90;;
20154;SDS011;10238;49.556;10.956;2023-04-03T10:13:12;2.95;;;2.50;;
20154;SDS011;10238;49.556;10.956;2023-04-03T10:16:06;2.58;;;2.35;;
20154;SDS011;10238;49.556;10.956;2023-04-03T10:19:04;6.00;;;2.90;;
20154;SDS011;10238;49.556;10.956;2023-04-03T10:22:19;2.70;;;2.50;;
20154;SDS011;10238;49.556;10.956;2023-04-03T10:25:12;2.60;;;2.30;;
20154;SDS011;10238;49.556;10.956;2023-04-03T10:28:10;2.75;;;2.40;;
20154;SDS011;10238;49.556;10.956;2023-04-03T10:31:09;3.65;;;2.22;;
20154;SDS011;10238;49.556;10.956;2023-04-03T10:34:05;3.42;;;2.83;;
20154;SDS011;10238;49.556;10.956;2023-04-03T10:37:10;3.75;;;2.30;;
20154;SDS011;10238;49.556;10.956;2023-04-03T10:40:15;2.67;;;2.47;;
20154;SDS011;10238;49.556;10.956;2023-04-03T10:43:13;5.68;;;3.17;;
20154;SDS011;10238;49.556;10.956;2023-04-03T10:46:12;4.22;;;3.92;;
20154;SDS011;10238;49.556;10.956;2023-04-03T10:49:09;3.15;;;2.33;;
20154;SDS011;10238;49.556;10.956;2023-04-03T10:52:06;5.18;;;4.32;;
20154;SDS011;10238;49.556;10.956;2023-04-03T10:55:02;5.10;;;4.72;;
20154;SDS011;10238;49.556;10.956;2023-04-03T10:58:05;5.18;;;4.82;;
20154;SDS011;10238;49.556;10.956;2023-04-03T11:01:02;5.50;;;4.80;;
20154;SDS011;10238;49.556;10.956;2023-04-03T11:03:56;4.97;;;4.63;;
20154;SDS011;10238;49.556;10.956;2023-04-03T11:06:50;5.53;;;5.13;;
20154;SDS011;10238;49.556;10.956;2023-04-03T11:09:44;6.03;;;5.63;;
20154;SDS011;10238;49.556;10.956;2023-04-03T11:12:36;5.13;;;4.72;;
20154;SDS011;10238;49.556;10.956;2023-04-03T11:15:32;3.67;;;3.47;;
20154;SDS011;10238;49.556;10.956;2023-04-03T11:18:21;5.60;;;3.35;;
20154;SDS011;10238;49.556;10.956;2023-04-03T11:21:14;4.22;;;3.03;;
20154;SDS011;10238;49.556;10.956;2023-04-03T11:24:11;5.07;;;4.68;;
20154;SDS011;10238;49.556;10.956;2023-04-03T11:27:08;5.25;;;4.85;;
20154;SDS011;10238;49.556;10.956;2023-04-03T11:30:05;3.67;;;3.38;;
20154;SDS011;10238;49.556;10.956;2023-04-03T11:35:59;2.70;;;2.38;;
20154;SDS011;10238;49.556;10.956;2023-04-03T11:39:24;4.15;;;2.72;;
20154;SDS011;10238;49.556;10.956;2023-04-03T11:42:15;2.10;;;1.90;;
20154;SDS011;10238;49.556;10.956;2023-04-03T11:48:42;2.08;;;1.92;;
20154;SDS011;10238;49.556;10.956;2023-04-03T11:51:39;5.15;;;2.45;;
20154;SDS011;10238;49.556;10.956;2023-04-03T11:54:42;2.55;;;2.35;;
20154;SDS011;10238;49.556;10.956;2023-04-03T11:58:12;3.67;;;2.40;;
20154;SDS011;10238;49.556;10.956;2023-04-03T12:00:59;3.67;;;2.50;;
20154;SDS011;10238;49.556;10.956;2023-04-03T12:03:57;3.08;;;2.70;;
20154;SDS011;10238;49.556;10.956;2023-04-03T12:06:58;4.13;;;2.90;;
20154;SDS011;10238;49.556;10.956;2023-04-03T12:10:13;2.85;;;2.17;;
20154;SDS011;10238;49.556;10.956;2023-04-03T12:13:17;2.40;;;2.30;;
20154;SDS011;10238;49.556;10.956;2023-04-03T12:16:05;4.38;;;4.07;;
20154;SDS011;10238;49.556;10.956;2023-04-03T12:18:58;3.35;;;2.60;;
20154;SDS011;10238;49.556;10.956;2023-04-03T12:22:09;2.97;;;2.75;;
20154;SDS011;10238;49.556;10.956;2023-04-03T12:25:00;2.75;;;2.55;;
20154;SDS011;10238;49.556;10.956;2023-04-03T12:28:29;4.45;;;2.72;;
20154;SDS011;10238;49.556;10.956;2023-04-03T12:31:24;3.08;;;2.20;;
20154;SDS011;10238;49.556;10.956;2023-04-03T12:34:24;2.92;;;2.50;;
20154;SDS011;10238;49.556;10.956;2023-04-03T12:37:38;2.65;;;1.95;;
20154;SDS011;10238;49.556;10.956;2023-04-03T12:40:36;2.78;;;2.05;;
20154;SDS011;10238;49.556;10.956;2023-04-03T12:43:40;3.33;;;3.10;;
20154;SDS011;10238;49.556;10.956;2023-04-03T12:46:37;2.75;;;2.53;;
20154;SDS011;10238;49.556;10.956;2023-04-03T12:49:33;5.28;;;4.85;;
20154;SDS011;10238;49.556;10.956;2023-04-03T12:52:30;3.90;;;3.60;;
20154;SDS011;10238;49.556;10.956;2023-04-03T12:55:21;3.80;;;3.40;;
20154;SDS011;10238;49.556;10.956;2023-04-03T12:58:13;4.40;;;3.95;;
20154;SDS011;10238;49.556;10.956;2023-04-03T13:01:11;3.60;;;3.30;;
20154;SDS011;10238;49.556;10.956;2023-04-03T13:04:01;4.20;;;2.72;;
20154;SDS011;10238;49.556;10.956;2023-04-03T13:06:49;3.20;;;2.90;;
20154;SDS011;10238;49.556;10.956;2023-04-03T13:09:37;3.03;;;2.72;;
20154;SDS011;10238;49.556;10.956;2023-04-03T13:12:26;2.30;;;2.20;;
20154;SDS011;10238;49.556;10.956;2023-04-03T13:15:19;3.40;;;2.40;;
20154;SDS011;10238;49.556;10.956;2023-04-03T13:18:26;2.55;;;2.30;;
20154;SDS011;10238;49.556;10.956;2023-04-03T13:21:17;3.97;;;2.78;;
20154;SDS011;10238;49.556;10.956;2023-04-03T13:24:08;2.50;;;2.30;;
20154;SDS011;10238;49.556;10.956;2023-04-03T13:27:00;4.28;;;2.70;;
20154;SDS011;10238;49.556;10.956;2023-04-03T13:29:49;3.10;;;2.55;;
20154;SDS011;10238;49.556;10.956;2023-04-03T13:32:38;3.17;;;2.92;;
20154;SDS011;10238;49.556;10.956;2023-04-03T13:35:38;4.95;;;2.90;;
20154;SDS011;10238;49.556;10.956;2023-04-03T13:38:35;3.13;;;2.83;;
20154;SDS011;10238;49.556;10.956;2023-04-03T13:41:24;6.50;;;3.40;;
20154;SDS011;10238;49.556;10.956;2023-04-03T13:44:27;2.60;;;2.40;;
20154;SDS011;10238;49.556;10.956;2023-04-03T13:47:18;4.65;;;2.72;;
20154;SDS011;10238;49.556;10.956;2023-04-03T13:50:13;4.32;;;3.25;;
20154;SDS011;10238;49.556;10.956;2023-04-03T13:53:11;5.07;;;2.80;;
20154;SDS011;10238;49.556;10.956;2023-04-03T13:56:05;2.72;;;2.53;;
20154;SDS011;10238;49.556;10.956;2023-04-03T13:58:59;4.65;;;2.53;;
20154;SDS011;10238;49.556;10.956;2023-04-03T14:01:52;2.67;;;2.40;;
20154;SDS011;10238;49.556;10.956;2023-04-03T14:04:45;2.63;;;2.42;;
20154;SDS011;10238;49.556;10.956;2023-04-03T14:07:42;3.10;;;2.90;;
20154;SDS011;10238;49.556;10.956;2023-04-03T14:10:32;3.75;;;2.75;;
20154;SDS011;10238;49.556;10.956;2023-04-03T14:13:21;3.50;;;3.22;;
20154;SDS011;10238;49.556;10.956;2023-04-03T14:16:12;4.72;;;3.90;;
20154;SDS011;10238;49.556;10.956;2023-04-03T14:19:02;5.50;;;3.03;;
20154;SDS011;10238;49.556;10.956;2023-04-03T14:21:51;3.25;;;3.05;;
20154;SDS011;10238;49.556;10.956;2023-04-03T14:24:40;3.38;;;3.00;;
20154;SDS011;10238;49.556;10.956;2023-04-03T14:27:31;3.75;;;2.85;;
20154;SDS011;10238;49.556;10.956;2023-04-03T14:30:24;3.50;;;2.90;;
20154;SDS011;10238;49.556;10.956;2023-04-03T14:33:15;4.30;;;2.97;;
20154;SDS011;10238;49.556;10.956;2023-04-03T14:36:10;3.38;;;3.17;;
20154;SDS011;10238;49.556;10.956;2023-04-03T14:39:01;2.60;;;2.47;;
20154;SDS011;10238;49.556;10.956;2023-04-03T14:41:51;5.40;;;3.08;;
20154;SDS011;10238;49.556;10.956;2023-04-03T14:44:40;2.80;;;2.60;;
20154;SDS011;10238;49.556;10.956;2023-04-03T14:47:29;3.55;;;3.28;;
20154;SDS011;10238;49.556;10.956;2023-04-03T14:50:19;4.25;;;3.70;;
20154;SDS011;10238;49.556;10.956;2023-04-03T14:53:09;5.68;;;5.28;;
20154;SDS011;10238;49.556;10.956;2023-04-03T14:56:01;2.47;;;2.30;;
20154;SDS011;10238;49.556;10.956;2023-04-03T14:58:54;3.08;;;2.40;;
20154;SDS011;10238;49.556;10.956;2023-04-03T15:01:45;5.13;;;2.42;;
20154;SDS011;10238;49.556;10.956;2023-04-03T15:04:34;3.70;;;3.40;;
20154;SDS011;10238;49.556;10.956;2023-04-03T15:07:23;3.50;;;3.20;;
20154;SDS011;10238;49.556;10.956;2023-04-03T15:10:38;4.50;;;2.08;;
20154;SDS011;10238;49.556;10.956;2023-04-03T15:13:26;5.97;;;3.20;;
20154;SDS011;10238;49.556;10.956;2023-04-03T15:16:15;3.03;;;2.08;;
20154;SDS011;10238;49.556;10.956;2023-04-03T15:19:07;3.08;;;2.88;;
20154;SDS011;10238;49.556;10.956;2023-04-03T15:21:58;3.67;;;3.38;;
20154;SDS011;10238;49.556;10.956;2023-04-03T15:24:46;2.80;;;2.60;;
20154;SDS011;10238;49.556;10.956;2023-04-03T15:27:37;4.00;;;3.47;;
20154;SDS011;10238;49.556;10.956;2023-04-03T15:30:26;2.58;;;2.38;;
20154;SDS011;10238;49.556;10.956;2023-04-03T15:33:14;4.35;;;2.88;;
20154;SDS011;10238;49.556;10.956;2023-04-03T15:36:04;3.78;;;3.08;;
20154;SDS011;10238;49.556;10.956;2023-04-03T15:39:12;5.20;;;3.67;;
20154;SDS011;10238;49.556;10.956;2023-04-03T15:42:01;3.55;;;3.25;;
20154;SDS011;10238;49.556;10.956;2023-04-03T15:44:52;3.53;;;3.33;;
20154;SDS011;10238;49.556;10.956;2023-04-03T15:47:40;4.43;;;4.07;;
20154;SDS011;10238;49.556;10.956;2023-04-03T15:50:29;5.50;;;5.10;;
20154;SDS011;10238;49.556;10.956;2023-04-03T15:53:19;5.35;;;4.15;;
20154;SDS011;10238;49.556;10.956;2023-04-03T15:56:07;3.83;;;3.22;;
20154;SDS011;10238;49.556;10.956;2023-04-03T15:58:57;6.15;;;3.47;;
20154;SDS011;10238;49.556;10.956;2023-04-03T16:01:45;3.75;;;2.25;;
20154;SDS011;10238;49.556;10.956;2023-04-03T16:04:33;3.63;;;3.38;;
20154;SDS011;10238;49.556;10.956;2023-04-03T16:07:22;5.38;;;4.88;;
20154;SDS011;10238;49.556;10.956;2023-04-03T16:10:12;4.75;;;4.35;;
20154;SDS011;10238;49.556;10.956;2023-04-03T16:13:02;3.08;;;2.88;;
20154;SDS011;10238;49.556;10.956;2023-04-03T16:15:50;5.35;;;4.85;;
20154;SDS011;10238;49.556;10.956;2023-04-03T16:18:39;3.20;;;2.97;;
20154;SDS011;10238;49.556;10.956;2023-04-03T16:21:27;4.70;;;3.17;;
20154;SDS011;10238;49.556;10.956;2023-04-03T16:24:16;4.03;;;3.72;;
20154;SDS011;10238;49.556;10.956;2023-04-03T16:27:05;3.13;;;2.53;;
20154;SDS011;10238;49.556;10.956;2023-04-03T16:29:53;3.17;;;2.97;;
20154;SDS011;10238;49.556;10.956;2023-04-03T16:32:41;4.28;;;2.85;;
20154;SDS011;10238;49.556;10.956;2023-04-03T16:35:29;3.80;;;2.90;;
20154;SDS011;10238;49.556;10.956;2023-04-03T16:38:20;3.83;;;2.75;;
20154;SDS011;10238;49.556;10.956;2023-04-03T16:41:08;5.68;;;2.40;;
20154;SDS011;10238;49.556;10.956;2023-04-03T16:43:57;2.38;;;2.00;;
20154;SDS011;10238;49.556;10.956;2023-04-03T16:46:45;4.43;;;3.10;;
20154;SDS011;10238;49.556;10.956;2023-04-03T16:49:34;2.70;;;2.50;;
20154;SDS011;10238;49.556;10.956;2023-04-03T16:52:22;2.35;;;1.90;;
20154;SDS011;10238;49.556;10.956;2023-04-03T16:55:10;4.40;;;1.83;;
20154;SDS011;10238;49.556;10.956;2023-04-03T16:57:59;4.47;;;4.10;;
20154;SDS011;10238;49.556;10.956;2023-04-03T17:00:48;4.70;;;3.10;;
20154;SDS011;10238;49.556;10.956;2023-04-03T17:03:37;3.97;;;2.28;;
20154;SDS011;10238;49.556;10.956;2023-04-03T17:06:25;4.03;;;2.10;;
20154;SDS011;10238;49.556;10.956;2023-04-03T17:09:13;2.90;;;1.75;;